Time;durP1;ratioP1;P1;durP2;ratioP2;P2;SDS_P1;SDS_P2;PMS_P1;PMS_P2;Temp;Humidity;BMP_temperature;BMP_pressure;BME280_temperature;BME280_humidity;BME280_pressure;Samples;Min_cycle;Max_cycle;Signal;HPM_P1;HPM_P2
2023/09/30 00:01:03;;;;;;;17.10;4.53;;;13.20;99.90;;;;;;5094275;28;20047;-72
2023/09/30 00:03:28;;;;;;;13.75;4.38;;;13.20;99.90;;;;;;5094240;28;20099;-75
2023/09/30 00:05:55;;;;;;;15.02;4.72;;;13.20;99.90;;;;;;5077734;28;20181;-76
2023/09/30 00:08:20;;;;;;;20.50;5.13;;;13.20;99.90;;;;;;5094269;28;20047;-73
2023/09/30 00:10:46;;;;;;;15.13;4.25;;;13.20;99.90;;;;;;5094561;28;20052;-75
2023/09/30 00:13:13;;;;;;;14.23;4.55;;;13.20;99.90;;;;;;5094413;28;20642;-73
2023/09/30 00:15:38;;;;;;;13.70;4.80;;;13.20;99.90;;;;;;5094800;28;20043;-73
2023/09/30 00:18:05;;;;;;;15.23;4.70;;;13.20;99.90;;;;;;5112624;28;20552;-73
2023/09/30 00:20:31;;;;;;;19.58;4.57;;;13.20;99.90;;;;;;5061024;28;20143;-73
2023/09/30 00:22:57;;;;;;;16.48;4.43;;;13.20;99.90;;;;;;5093068;28;20085;-75
2023/09/30 00:25:23;;;;;;;14.82;4.30;;;13.20;99.90;;;;;;5077860;28;20450;-73
2023/09/30 00:27:49;;;;;;;17.70;4.15;;;13.20;99.90;;;;;;5094578;28;20087;-73
2023/09/30 00:30:15;;;;;;;11.55;3.58;;;13.20;99.90;;;;;;5094067;28;20401;-73
2023/09/30 00:32:41;;;;;;;15.90;4.00;;;13.20;99.90;;;;;;5116051;28;20074;-74
2023/09/30 00:35:11;;;;;;;11.77;4.00;;;13.10;99.90;;;;;;5097930;28;20044;-73
2023/09/30 00:37:38;;;;;;;16.98;4.50;;;13.10;99.90;;;;;;5081871;28;20051;-73
2023/09/30 00:40:05;;;;;;;14.02;4.57;;;13.10;99.90;;;;;;5098099;28;20044;-73
2023/09/30 00:42:31;;;;;;;13.80;4.20;;;13.10;99.90;;;;;;5116278;28;20480;-73
2023/09/30 00:44:57;;;;;;;14.85;3.72;;;13.10;99.90;;;;;;5116163;28;20147;-73
2023/09/30 00:47:23;;;;;;;15.95;3.83;;;13.10;99.90;;;;;;5115926;28;20484;-73
2023/09/30 00:49:51;;;;;;;16.05;3.83;;;13.10;99.90;;;;;;5097984;28;20039;-72
2023/09/30 00:52:18;;;;;;;17.10;4.43;;;13.10;99.90;;;;;;5097742;28;20121;-72
2023/09/30 00:54:44;;;;;;;15.23;4.65;;;13.10;99.90;;;;;;5115403;28;20544;-73
2023/09/30 00:57:11;;;;;;;13.82;4.13;;;13.00;99.90;;;;;;5080160;28;20052;-73
2023/09/30 00:59:37;;;;;;;19.33;4.38;;;13.00;99.90;;;;;;5080622;28;20043;-73
2023/09/30 01:02:06;;;;;;;14.00;3.78;;;13.00;99.90;;;;;;5115439;28;20048;-76
2023/09/30 01:04:32;;;;;;;13.60;4.10;;;13.00;99.90;;;;;;5097753;28;20094;-75
2023/09/30 01:06:57;;;;;;;18.38;4.43;;;13.00;99.90;;;;;;5080564;28;20051;-73
2023/09/30 01:09:24;;;;;;;14.43;4.18;;;13.00;99.90;;;;;;5080289;28;20039;-73
2023/09/30 01:11:51;;;;;;;11.20;4.20;;;12.90;99.90;;;;;;5097568;28;20050;-73
2023/09/30 01:14:29;;;;;;;16.73;4.50;;;12.90;99.90;;;;;;5080298;28;20052;-73
2023/09/30 01:16:56;;;;;;;11.23;3.78;;;12.90;99.90;;;;;;5097531;28;20058;-73
2023/09/30 01:19:23;;;;;;;14.55;4.55;;;12.90;99.90;;;;;;5080082;28;20047;-73
2023/09/30 01:21:50;;;;;;;16.95;4.45;;;12.90;99.90;;;;;;5098391;28;20055;-74
2023/09/30 01:24:15;;;;;;;14.48;4.32;;;12.90;99.90;;;;;;5085150;28;20127;-74
2023/09/30 01:26:44;;;;;;;16.35;4.22;;;12.90;99.90;;;;;;5100066;28;20078;-73
2023/09/30 01:29:10;;;;;;;14.50;4.13;;;12.90;99.90;;;;;;5097144;28;20131;-74
2023/09/30 01:31:37;;;;;;;13.70;4.13;;;12.90;99.90;;;;;;5096958;28;20052;-73
2023/09/30 01:34:03;;;;;;;16.48;4.40;;;12.90;99.90;;;;;;5080176;28;20054;-74
2023/09/30 01:36:28;;;;;;;18.80;4.38;;;12.90;99.90;;;;;;5079864;28;20036;-73
2023/09/30 01:38:54;;;;;;;14.68;4.47;;;12.90;99.90;;;;;;5097355;28;20496;-74
2023/09/30 01:41:20;;;;;;;9.50;3.70;;;12.90;99.90;;;;;;5063156;28;20508;-73
2023/09/30 01:43:46;;;;;;;13.63;4.13;;;12.90;99.90;;;;;;5079361;28;20040;-73
2023/09/30 01:46:12;;;;;;;12.82;4.28;;;12.90;99.90;;;;;;5114450;28;20050;-74
2023/09/30 01:48:38;;;;;;;11.65;3.97;;;12.90;99.90;;;;;;5079685;28;20114;-73
2023/09/30 01:51:04;;;;;;;14.48;4.82;;;12.90;99.90;;;;;;5079610;28;20047;-74
2023/09/30 01:53:30;;;;;;;15.10;4.22;;;12.90;99.90;;;;;;5114123;28;20048;-72
2023/09/30 01:55:55;;;;;;;15.88;4.07;;;12.90;99.90;;;;;;5096024;28;20120;-73
2023/09/30 01:58:21;;;;;;;13.98;4.13;;;12.90;99.90;;;;;;5062451;28;20478;-72
2023/09/30 02:00:47;;;;;;;11.35;3.53;;;12.90;99.90;;;;;;5079724;28;20039;-74
2023/09/30 02:03:13;;;;;;;12.93;4.25;;;12.90;99.90;;;;;;5114133;28;20043;-76
2023/09/30 02:05:39;;;;;;;16.95;4.65;;;12.90;99.90;;;;;;5079705;28;20075;-74
2023/09/30 02:08:05;;;;;;;15.15;4.28;;;12.90;99.90;;;;;;5096049;28;20088;-74
2023/09/30 02:10:33;;;;;;;10.80;4.63;;;12.90;99.90;;;;;;5078625;28;20055;-74
2023/09/30 02:13:05;;;;;;;12.32;4.45;;;12.90;99.90;;;;;;5079178;28;20086;-73
2023/09/30 02:15:32;;;;;;;12.18;3.97;;;12.90;99.90;;;;;;5095558;28;20050;-73
2023/09/30 02:17:57;;;;;;;11.32;4.00;;;12.90;99.90;;;;;;5096062;28;20047;-74
2023/09/30 02:20:25;;;;;;;11.77;4.35;;;12.80;99.90;;;;;;5078929;28;20047;-74
2023/09/30 02:22:52;;;;;;;12.23;3.83;;;12.80;99.90;;;;;;5079975;28;20174;-73
2023/09/30 02:25:18;;;;;;;11.23;4.40;;;12.80;99.90;;;;;;5096263;28;20047;-73
2023/09/30 02:27:45;;;;;;;16.52;4.03;;;12.80;99.90;;;;;;5079730;28;20391;-74
2023/09/30 02:30:13;;;;;;;15.10;3.70;;;12.80;99.90;;;;;;5095821;28;20063;-74
2023/09/30 02:32:41;;;;;;;10.80;3.55;;;12.90;99.90;;;;;;5078660;28;20060;-72
2023/09/30 02:35:07;;;;;;;15.43;4.30;;;12.80;99.90;;;;;;5095957;28;20039;-73
2023/09/30 02:37:37;;;;;;;16.30;4.15;;;12.80;99.90;;;;;;5095617;28;20078;-73
2023/09/30 02:40:10;;;;;;;14.60;3.90;;;12.80;99.90;;;;;;5095669;28;20079;-73
2023/09/30 02:42:40;;;;;;;13.35;4.00;;;12.80;99.90;;;;;;5079077;28;20058;-73
2023/09/30 02:45:07;;;;;;;13.85;3.72;;;12.80;99.90;;;;;;5114204;28;20089;-73
2023/09/30 02:47:34;;;;;;;15.52;4.13;;;12.80;99.90;;;;;;5079127;28;20513;-73
2023/09/30 02:50:01;;;;;;;12.32;3.75;;;12.80;99.90;;;;;;5079388;28;20400;-73
2023/09/30 02:52:28;;;;;;;11.80;3.78;;;12.80;99.90;;;;;;5095517;28;20061;-73
2023/09/30 02:54:54;;;;;;;13.25;4.70;;;12.80;99.90;;;;;;5077953;28;20051;-73
2023/09/30 02:57:21;;;;;;;10.70;3.70;;;12.80;99.90;;;;;;5095103;28;20051;-76
2023/09/30 02:59:47;;;;;;;10.23;3.90;;;12.80;99.90;;;;;;5094918;28;20434;-74
2023/09/30 03:02:13;;;;;;;17.92;3.75;;;12.80;99.90;;;;;;5113715;28;20157;-74
2023/09/30 03:04:39;;;;;;;12.65;3.83;;;12.80;99.90;;;;;;5094783;28;20051;-73
2023/09/30 03:07:05;;;;;;;11.20;3.65;;;12.80;99.90;;;;;;5062789;28;20127;-72
2023/09/30 03:09:31;;;;;;;14.48;3.90;;;12.80;99.90;;;;;;5121602;28;20075;-71
2023/09/30 03:11:59;;;;;;;11.68;3.30;;;12.80;99.90;;;;;;5079092;28;20389;-74
2023/09/30 03:14:25;;;;;;;9.15;3.75;;;12.80;99.90;;;;;;5078186;28;20136;-74
2023/09/30 03:16:51;;;;;;;15.70;3.80;;;12.80;99.90;;;;;;5095165;28;20142;-73
2023/09/30 03:19:17;;;;;;;9.38;3.90;;;12.80;99.90;;;;;;5077860;28;20141;-73
2023/09/30 03:21:43;;;;;;;12.02;4.00;;;12.80;99.90;;;;;;5112349;28;20243;-73
2023/09/30 03:24:09;;;;;;;12.43;4.55;;;12.80;99.90;;;;;;5094718;28;20125;-73
2023/09/30 03:26:35;;;;;;;12.88;4.28;;;12.80;99.90;;;;;;5060809;28;20070;-73
2023/09/30 03:29:02;;;;;;;11.98;3.72;;;12.80;99.90;;;;;;5094705;28;20054;-73
2023/09/30 03:31:27;;;;;;;13.45;4.28;;;12.80;99.90;;;;;;5060033;28;20170;-74
2023/09/30 03:33:56;;;;;;;13.73;3.97;;;12.80;99.90;;;;;;5077799;28;20140;-73
2023/09/30 03:36:24;;;;;;;12.48;3.38;;;12.70;99.90;;;;;;5077261;28;20378;-73
2023/09/30 03:38:54;;;;;;;9.65;3.67;;;12.70;99.90;;;;;;5094417;28;20134;-73
2023/09/30 03:41:20;;;;;;;11.32;4.18;;;12.70;99.90;;;;;;5078304;28;20062;-74
2023/09/30 03:43:47;;;;;;;11.25;3.45;;;12.70;99.90;;;;;;5060644;28;20316;-72
2023/09/30 03:46:13;;;;;;;9.10;3.10;;;12.70;99.90;;;;;;5061343;28;20446;-72
2023/09/30 03:48:42;;;;;;;11.43;3.55;;;12.70;99.90;;;;;;5093805;28;20047;-73
2023/09/30 03:51:15;;;;;;;11.00;3.60;;;12.70;99.90;;;;;;5078097;28;20087;-72
2023/09/30 03:53:44;;;;;;;9.52;3.53;;;12.70;99.90;;;;;;5093885;28;20371;-73
2023/09/30 03:56:11;;;;;;;14.00;3.78;;;12.70;99.90;;;;;;5094303;28;20040;-73
2023/09/30 03:58:41;;;;;;;10.32;3.80;;;12.70;99.90;;;;;;5094188;28;20047;-73
2023/09/30 04:01:13;;;;;;;9.65;3.72;;;12.70;99.90;;;;;;5078437;28;20040;-72
2023/09/30 04:03:40;;;;;;;12.10;3.67;;;12.70;99.90;;;;;;5112602;28;20047;-73
2023/09/30 04:06:09;;;;;;;15.35;4.63;;;12.60;99.90;;;;;;5096619;28;20048;-73
2023/09/30 04:08:35;;;;;;;14.32;4.00;;;12.70;99.90;;;;;;5098183;28;20058;-73
2023/09/30 04:11:03;;;;;;;14.32;3.42;;;12.60;99.90;;;;;;5081587;28;20058;-73
2023/09/30 04:13:33;;;;;;;14.68;4.05;;;12.60;99.90;;;;;;5065630;28;20075;-73
2023/09/30 04:15:58;;;;;;;11.45;3.33;;;12.60;99.90;;;;;;5081683;28;20040;-73
2023/09/30 04:18:26;;;;;;;14.82;4.07;;;12.60;99.90;;;;;;5116728;28;20070;-73
2023/09/30 04:20:55;;;;;;;12.10;3.83;;;12.60;99.90;;;;;;5098291;28;20206;-73
2023/09/30 04:23:21;;;;;;;15.25;3.70;;;12.50;99.90;;;;;;5081600;28;20047;-74
2023/09/30 04:25:47;;;;;;;12.32;4.20;;;12.50;99.90;;;;;;5098353;28;20074;-74
2023/09/30 04:28:13;;;;;;;11.82;3.72;;;12.50;99.90;;;;;;5098415;28;20040;-73
2023/09/30 04:30:40;;;;;;;11.13;4.57;;;12.50;99.90;;;;;;5115644;28;20646;-73
2023/09/30 04:33:07;;;;;;;12.63;4.22;;;12.50;99.90;;;;;;5116414;28;20112;-73
2023/09/30 04:35:35;;;;;;;11.82;6.13;;;12.50;99.90;;;;;;5097969;28;20047;-77
2023/09/30 04:38:01;;;;;;;12.90;6.70;;;12.50;99.90;;;;;;5081001;28;20039;-73
2023/09/30 04:40:27;;;;;;;12.85;4.38;;;12.50;99.90;;;;;;5081644;28;20161;-73
2023/09/30 04:42:58;;;;;;;14.18;3.97;;;12.50;99.90;;;;;;5097867;28;20083;-73
2023/09/30 04:45:27;;;;;;;12.15;4.20;;;12.50;99.90;;;;;;5081266;28;20044;-72
2023/09/30 04:47:58;;;;;;;18.20;4.50;;;12.50;99.90;;;;;;5097497;28;20357;-73
2023/09/30 04:50:24;;;;;;;14.25;3.85;;;12.50;99.90;;;;;;5098062;28;20116;-73
2023/09/30 04:52:51;;;;;;;17.23;4.78;;;12.60;99.90;;;;;;5097682;28;20048;-74
2023/09/30 04:55:18;;;;;;;11.90;3.95;;;12.50;99.90;;;;;;5097230;28;20039;-76
2023/09/30 04:57:45;;;;;;;14.57;4.60;;;12.50;99.90;;;;;;5097349;28;20124;-74
2023/09/30 05:00:24;;;;;;;17.35;4.32;;;12.50;99.90;;;;;;5064117;28;20378;-74
2023/09/30 05:02:52;;;;;;;13.82;4.53;;;12.50;99.90;;;;;;5097152;28;20058;-74
2023/09/30 05:05:18;;;;;;;12.75;4.47;;;12.50;99.90;;;;;;5097085;28;20086;-73
2023/09/30 05:07:46;;;;;;;12.27;4.95;;;12.50;99.90;;;;;;5115240;28;20390;-75
2023/09/30 05:10:15;;;;;;;9.52;3.92;;;12.50;99.90;;;;;;5097496;28;20055;-74
2023/09/30 05:12:45;;;;;;;11.60;4.35;;;12.50;99.90;;;;;;5080025;28;20055;-77
2023/09/30 05:15:15;;;;;;;13.80;4.70;;;12.50;99.90;;;;;;5063852;28;20040;-74
2023/09/30 05:17:45;;;;;;;13.88;4.50;;;12.50;99.90;;;;;;5095973;28;20052;-77
2023/09/30 05:20:12;;;;;;;13.38;4.53;;;12.50;99.90;;;;;;5098525;28;20086;-73
2023/09/30 05:22:40;;;;;;;9.50;4.47;;;12.50;99.90;;;;;;5085783;28;20098;-75
2023/09/30 05:25:07;;;;;;;13.13;4.90;;;12.50;99.90;;;;;;5119526;28;20044;-75
2023/09/30 05:27:33;;;;;;;12.93;5.32;;;12.50;99.90;;;;;;5096685;28;20051;-74
2023/09/30 05:29:59;;;;;;;11.25;4.55;;;12.40;99.90;;;;;;5079859;28;20139;-74
2023/09/30 05:32:26;;;;;;;15.25;4.65;;;12.40;99.90;;;;;;5080098;28;20079;-73
2023/09/30 05:34:54;;;;;;;18.40;5.47;;;12.40;99.90;;;;;;5096056;28;20046;-73
2023/09/30 05:37:21;;;;;;;13.23;4.85;;;12.40;99.90;;;;;;5079325;28;20055;-74
2023/09/30 05:39:48;;;;;;;15.55;5.25;;;12.40;99.90;;;;;;5079400;28;20495;-73
2023/09/30 05:42:18;;;;;;;13.70;5.30;;;12.40;99.90;;;;;;5080386;28;20451;-72
2023/09/30 05:44:45;;;;;;;16.10;5.25;;;12.40;99.90;;;;;;5063512;28;20050;-77
2023/09/30 05:47:12;;;;;;;15.52;6.05;;;12.40;99.90;;;;;;5096505;28;20124;-74
2023/09/30 05:49:37;;;;;;;18.45;6.03;;;12.40;99.90;;;;;;5096692;28;20447;-73
2023/09/30 05:52:03;;;;;;;15.43;5.55;;;12.30;99.90;;;;;;5079225;28;20044;-73
2023/09/30 05:54:30;;;;;;;17.90;6.25;;;12.40;99.90;;;;;;5079641;28;20059;-75
2023/09/30 05:56:56;;;;;;;15.15;6.28;;;12.30;99.90;;;;;;5096097;28;20111;-76
2023/09/30 05:59:24;;;;;;;14.88;5.97;;;12.40;99.90;;;;;;5079445;28;20131;-74
2023/09/30 06:01:50;;;;;;;20.70;6.40;;;12.30;99.90;;;;;;5079198;28;20056;-76
2023/09/30 06:04:16;;;;;;;17.02;5.80;;;12.30;99.90;;;;;;5079252;28;20052;-73
2023/09/30 06:06:43;;;;;;;18.05;5.70;;;12.30;99.90;;;;;;5079177;28;20056;-73
2023/09/30 06:09:09;;;;;;;11.75;5.70;;;12.40;99.90;;;;;;5079052;28;20040;-74
2023/09/30 06:11:35;;;;;;;15.32;6.25;;;12.40;99.90;;;;;;5096765;28;20427;-73
2023/09/30 06:14:02;;;;;;;21.33;6.65;;;12.40;99.90;;;;;;5095951;28;20054;-73
2023/09/30 06:16:29;;;;;;;18.02;6.72;;;12.40;99.90;;;;;;5114729;28;20131;-73
2023/09/30 06:18:55;;;;;;;14.02;6.40;;;12.40;99.90;;;;;;5079160;28;20504;-74
2023/09/30 06:21:21;;;;;;;19.52;6.97;;;12.40;99.90;;;;;;5079770;28;20043;-73
2023/09/30 06:23:53;;;;;;;13.60;6.78;;;12.50;99.90;;;;;;5096725;28;20476;-73
2023/09/30 06:26:20;;;;;;;21.13;6.97;;;12.50;99.90;;;;;;5096503;28;20066;-75
2023/09/30 06:28:47;;;;;;;13.65;6.32;;;12.50;99.90;;;;;;5078648;28;20503;-74
2023/09/30 06:31:14;;;;;;;14.50;6.78;;;12.60;99.90;;;;;;5061869;28;20063;-74
2023/09/30 06:33:40;;;;;;;16.77;6.72;;;12.60;99.90;;;;;;5096396;28;20077;-75
2023/09/30 06:36:10;;;;;;;15.35;6.20;;;12.60;99.90;;;;;;5095667;28;20131;-74
2023/09/30 06:38:37;;;;;;;16.73;6.68;;;12.70;99.90;;;;;;5079836;28;20043;-74
2023/09/30 06:41:03;;;;;;;15.43;6.22;;;12.70;99.90;;;;;;5113058;28;20058;-74
2023/09/30 06:43:29;;;;;;;15.70;6.35;;;12.80;99.90;;;;;;5079073;28;20058;-74
2023/09/30 06:45:55;;;;;;;16.45;6.82;;;12.80;99.90;;;;;;5095467;28;20051;-77
2023/09/30 06:48:21;;;;;;;13.07;5.75;;;12.90;99.90;;;;;;5095846;28;20046;-74
2023/09/30 06:50:48;;;;;;;13.82;6.07;;;12.90;99.90;;;;;;5096023;28;20047;-74
2023/09/30 06:53:21;;;;;;;16.45;6.60;;;13.00;99.90;;;;;;5079359;28;20155;-74
2023/09/30 06:55:47;;;;;;;18.48;6.75;;;13.10;99.90;;;;;;5063039;28;20043;-74
2023/09/30 06:58:13;;;;;;;17.08;6.45;;;13.10;99.90;;;;;;5095601;28;20050;-73
2023/09/30 07:00:42;;;;;;;14.68;5.97;;;13.20;99.90;;;;;;5095631;28;20059;-74
2023/09/30 07:03:09;;;;;;;15.48;6.47;;;13.30;99.90;;;;;;5078320;28;20044;-73
2023/09/30 07:05:36;;;;;;;15.40;6.50;;;13.40;99.90;;;;;;5095547;28;20060;-74
2023/09/30 07:08:02;;;;;;;13.63;6.03;;;13.50;99.90;;;;;;5095288;28;20050;-73
2023/09/30 07:10:29;;;;;;;14.63;5.47;;;13.60;99.90;;;;;;5078413;28;20126;-74
2023/09/30 07:12:55;;;;;;;12.45;6.13;;;13.70;99.90;;;;;;5095066;28;20090;-74
2023/09/30 07:15:21;;;;;;;12.57;5.95;;;13.80;99.90;;;;;;5094680;28;20142;-73
2023/09/30 07:17:47;;;;;;;14.73;6.10;;;14.00;99.90;;;;;;5078231;28;20528;-75
2023/09/30 07:20:13;;;;;;;17.52;6.25;;;14.20;99.90;;;;;;5078295;28;20047;-73
2023/09/30 07:22:39;;;;;;;13.70;5.55;;;14.20;99.90;;;;;;5078089;28;20108;-73
2023/09/30 07:25:06;;;;;;;12.38;5.68;;;14.30;99.90;;;;;;5094442;28;20066;-74
2023/09/30 07:27:32;;;;;;;11.57;5.10;;;14.50;99.90;;;;;;5094976;28;20039;-74
2023/09/30 07:29:58;;;;;;;11.45;5.10;;;14.60;99.90;;;;;;5094524;28;20472;-75
2023/09/30 07:32:24;;;;;;;13.90;5.25;;;14.70;99.90;;;;;;5061315;28;20453;-74
2023/09/30 07:34:51;;;;;;;15.30;5.82;;;14.90;99.90;;;;;;5078980;28;20035;-74
2023/09/30 07:37:18;;;;;;;13.90;5.30;;;15.20;99.90;;;;;;5101348;28;20052;-73
2023/09/30 07:39:45;;;;;;;10.98;5.00;;;15.70;99.90;;;;;;5115068;28;20054;-74
2023/09/30 07:42:11;;;;;;;11.55;4.60;;;16.10;99.90;;;;;;5094362;28;20044;-74
2023/09/30 07:44:37;;;;;;;16.50;5.88;;;16.50;99.90;;;;;;5094583;28;20480;-74
2023/09/30 07:47:06;;;;;;;11.80;5.15;;;16.90;99.90;;;;;;5077607;28;20051;-78
2023/09/30 07:49:32;;;;;;;13.02;5.13;;;17.30;99.90;;;;;;5077718;28;20070;-74
2023/09/30 07:51:58;;;;;;;12.45;5.07;;;17.60;99.90;;;;;;5094781;28;20126;-74
2023/09/30 07:54:24;;;;;;;12.85;4.60;;;18.10;99.90;;;;;;5077524;28;20134;-74
2023/09/30 07:56:49;;;;;;;12.90;5.00;;;18.40;99.90;;;;;;5094200;28;20043;-73
2023/09/30 07:59:15;;;;;;;11.35;4.32;;;18.80;99.90;;;;;;5077486;28;20036;-74
2023/09/30 08:01:41;;;;;;;12.90;4.45;;;19.20;99.90;;;;;;5113232;28;20043;-74
2023/09/30 08:04:07;;;;;;;11.98;4.72;;;19.50;99.90;;;;;;5077574;28;20043;-75
2023/09/30 08:06:33;;;;;;;11.18;4.40;;;19.80;99.90;;;;;;5077962;28;20048;-74
2023/09/30 08:08:59;;;;;;;11.13;4.93;;;20.10;99.90;;;;;;5095248;28;20401;-74
2023/09/30 08:11:30;;;;;;;11.15;4.65;;;20.40;99.90;;;;;;5077613;28;20040;-74
2023/09/30 08:13:58;;;;;;;11.82;4.93;;;20.70;99.90;;;;;;5094657;28;20374;-74
2023/09/30 08:16:24;;;;;;;11.30;5.20;;;20.90;99.90;;;;;;5094106;28;20043;-74
2023/09/30 08:18:50;;;;;;;12.45;4.53;;;21.10;99.90;;;;;;5060848;28;20072;-73
2023/09/30 08:21:16;;;;;;;12.55;4.57;;;21.30;99.90;;;;;;5060351;28;20056;-73
2023/09/30 08:23:42;;;;;;;10.40;4.63;;;21.40;99.90;;;;;;5112740;28;20105;-69
2023/09/30 08:26:08;;;;;;;11.10;4.65;;;21.60;99.90;;;;;;5111955;28;20082;-77
2023/09/30 08:28:35;;;;;;;9.52;4.15;;;21.80;99.90;;;;;;5094167;28;20087;-68
2023/09/30 08:31:05;;;;;;;11.27;4.47;;;21.90;99.90;;;;;;5093561;28;20063;-68
2023/09/30 08:33:35;;;;;;;11.73;4.20;;;21.90;99.90;;;;;;5110682;28;20043;-68
2023/09/30 08:36:07;;;;;;;11.32;4.30;;;21.90;99.90;;;;;;5111658;28;20484;-69
2023/09/30 08:38:43;;;;;;;12.27;4.40;;;22.00;99.90;;;;;;5093817;28;20079;-69
2023/09/30 08:41:10;;;;;;;10.27;4.13;;;22.20;99.90;;;;;;5078142;28;20058;-79
2023/09/30 08:43:40;;;;;;;11.20;4.20;;;22.30;99.90;;;;;;5111955;28;20048;-69
2023/09/30 08:46:07;;;;;;;12.38;4.03;;;22.40;99.90;;;;;;5111966;28;20048;-70
2023/09/30 08:48:33;;;;;;;12.32;4.25;;;22.50;99.90;;;;;;5111722;28;20044;-68
2023/09/30 08:51:00;;;;;;;9.23;4.10;;;22.70;99.90;;;;;;5093800;28;20052;-68
2023/09/30 08:53:27;;;;;;;9.32;3.80;;;22.80;99.90;;;;;;5114848;28;20473;-68
2023/09/30 08:55:56;;;;;;;8.40;3.67;;;22.70;99.90;;;;;;5097191;28;20044;-69
2023/09/30 08:58:29;;;;;;;11.95;4.00;;;22.50;99.90;;;;;;5096933;28;20086;-70
2023/09/30 09:00:56;;;;;;;9.80;3.72;;;22.30;99.90;;;;;;5115578;28;20046;-69
2023/09/30 09:03:22;;;;;;;11.23;3.53;;;22.20;99.90;;;;;;5097043;28;20043;-68
2023/09/30 09:05:56;;;;;;;12.98;3.80;;;22.00;99.90;;;;;;5115394;28;20108;-68
2023/09/30 09:08:23;;;;;;;12.00;3.53;;;21.80;99.90;;;;;;5080319;28;20083;-68
2023/09/30 09:11:00;;;;;;;11.30;3.00;;;21.60;99.90;;;;;;5115224;28;20079;-69
2023/09/30 09:13:55;;;;;;;10.32;3.45;;;21.30;99.90;;;;;;5080010;28;20066;-69
2023/09/30 09:16:22;;;;;;;10.15;3.05;;;21.20;99.90;;;;;;5096672;28;20040;-71
2023/09/30 09:18:49;;;;;;;13.68;3.97;;;21.00;99.90;;;;;;5115309;28;20139;-69
2023/09/30 09:21:22;;;;;;;10.50;3.50;;;21.00;99.90;;;;;;5113855;28;20422;-78
2023/09/30 09:23:49;;;;;;;10.10;3.33;;;20.90;99.90;;;;;;5115060;28;20044;-69
2023/09/30 09:26:34;;;;;;;9.32;3.45;;;20.80;99.90;;;;;;5097120;28;20389;-72
2023/09/30 09:29:04;;;;;;;10.88;3.90;;;20.70;99.90;;;;;;5096798;28;20047;-69
2023/09/30 09:31:35;;;;;;;15.02;4.28;;;20.60;99.90;;;;;;5115152;28;20112;-68
2023/09/30 09:34:12;;;;;;;10.32;3.63;;;20.50;99.90;;;;;;5115191;28;20135;-69
2023/09/30 09:36:40;;;;;;;10.73;3.65;;;20.40;99.90;;;;;;5096460;28;20461;-69
2023/09/30 09:39:06;;;;;;;9.32;3.10;;;20.40;99.90;;;;;;5114969;28;20400;-68
2023/09/30 09:41:32;;;;;;;11.07;3.80;;;20.30;99.90;;;;;;5096739;28;20050;-69
2023/09/30 09:43:59;;;;;;;12.50;3.65;;;20.30;99.90;;;;;;5080192;28;20506;-68
2023/09/30 09:46:27;;;;;;;12.60;3.70;;;20.30;99.90;;;;;;5096346;28;20040;-69
2023/09/30 09:48:54;;;;;;;9.93;3.08;;;20.30;99.90;;;;;;5114814;28;20047;-69
2023/09/30 09:51:21;;;;;;;16.70;3.92;;;20.30;99.90;;;;;;5114834;28;20086;-81
2023/09/30 09:53:50;;;;;;;9.88;3.30;;;20.30;99.90;;;;;;5115022;28;20396;-69
2023/09/30 09:56:16;;;;;;;9.65;2.80;;;20.30;99.90;;;;;;5114533;28;20187;-69
2023/09/30 09:58:44;;;;;;;9.98;3.03;;;20.30;99.90;;;;;;5114166;28;20077;-69
2023/09/30 10:01:10;;;;;;;9.52;3.45;;;20.30;99.90;;;;;;5114322;28;20067;-68
2023/09/30 10:03:38;;;;;;;12.63;3.53;;;20.30;99.90;;;;;;5113534;28;20048;-69
2023/09/30 10:06:04;;;;;;;13.95;3.38;;;20.20;99.90;;;;;;5114637;28;20039;-68
2023/09/30 10:08:40;;;;;;;11.65;2.83;;;20.20;99.90;;;;;;5095653;28;20091;-69
2023/09/30 10:11:06;;;;;;;10.40;2.90;;;20.10;99.90;;;;;;5079238;28;20098;-68
2023/09/30 10:13:55;;;;;;;7.97;2.53;;;20.10;99.90;;;;;;5113728;28;20078;-69
2023/09/30 10:16:51;;;;;;;9.27;2.70;;;20.00;99.90;;;;;;5112651;28;20049;-69
2023/09/30 10:19:23;;;;;;;11.52;2.70;;;19.90;99.90;;;;;;5093126;28;20077;-68
2023/09/30 10:22:18;;;;;;;8.77;2.30;;;20.00;99.90;;;;;;5113902;28;20055;-69
2023/09/30 10:24:44;;;;;;;10.05;2.45;;;20.10;99.90;;;;;;5095732;28;20591;-67
2023/09/30 10:27:34;;;;;;;7.97;2.35;;;20.00;99.90;;;;;;5113605;28;20046;-67
2023/09/30 10:30:05;;;;;;;11.25;2.33;;;20.00;99.90;;;;;;5113469;28;20044;-68
2023/09/30 10:32:50;;;;;;;10.13;2.65;;;20.00;99.90;;;;;;5094877;28;20060;-67
2023/09/30 10:35:36;;;;;;;;;;;20.10;99.90;;;;;;5114148;28;20100;-68
2023/09/30 10:38:27;;;;;;;7.65;2.40;;;20.00;99.90;;;;;;5105418;28;19972;-71
2023/09/30 10:40:53;;;;;;;8.75;2.38;;;20.00;99.90;;;;;;5095177;28;20116;-68
2023/09/30 10:43:40;;;;;;;10.15;2.38;;;20.00;99.90;;;;;;5112988;28;20043;-68
2023/09/30 10:46:26;;;;;;;5.45;2.17;;;19.90;99.90;;;;;;5094985;28;20467;-71
2023/09/30 10:48:52;;;;;;;11.02;2.72;;;19.90;99.90;;;;;;5094642;28;20055;-72
2023/09/30 10:51:21;;;;;;;10.02;2.80;;;20.00;99.90;;;;;;5112850;28;20077;-66
2023/09/30 10:53:52;;;;;;;9.85;2.33;;;20.10;99.90;;;;;;5094948;28;20056;-67
2023/09/30 10:56:19;;;;;;;5.45;2.30;;;20.30;99.90;;;;;;5094886;28;20044;-68
2023/09/30 10:58:52;;;;;;;10.10;2.65;;;20.40;99.90;;;;;;5077691;28;20124;-67
2023/09/30 11:01:23;;;;;;;8.07;2.30;;;20.50;99.90;;;;;;5113026;28;20054;-68
2023/09/30 11:03:51;;;;;;;8.13;2.20;;;20.60;99.90;;;;;;5094681;28;20445;-67
2023/09/30 11:06:21;;;;;;;14.00;2.78;;;20.70;99.90;;;;;;5078138;28;20043;-67
2023/09/30 11:08:55;;;;;;;7.43;2.00;;;20.70;99.90;;;;;;5112695;28;20051;-67
2023/09/30 11:11:32;;;;;;;12.40;2.78;;;20.80;99.90;;;;;;5113082;28;20052;-68
2023/09/30 11:13:58;;;;;;;8.38;2.40;;;20.80;99.90;;;;;;5112746;28;20047;-66
2023/09/30 11:16:23;;;;;;;11.60;2.13;;;20.70;99.90;;;;;;5093718;28;20039;-66
2023/09/30 11:18:53;;;;;;;7.00;2.20;;;20.60;99.90;;;;;;5094421;28;20066;-66
2023/09/30 11:21:20;;;;;;;10.07;2.45;;;20.40;99.90;;;;;;5095142;28;20051;-66
2023/09/30 11:23:46;;;;;;;7.80;1.95;;;20.30;99.90;;;;;;5112426;28;20456;-66
2023/09/30 11:26:13;;;;;;;11.85;2.38;;;20.10;99.90;;;;;;5077836;28;20085;-65
2023/09/30 11:28:44;;;;;;;11.95;2.28;;;20.00;99.90;;;;;;5077435;28;20052;-67
2023/09/30 11:31:14;;;;;;;9.77;2.42;;;19.90;99.90;;;;;;5112320;28;20048;-67
2023/09/30 11:33:56;;;;;;;8.73;2.00;;;19.90;99.90;;;;;;5112229;28;20245;-67
2023/09/30 11:36:23;;;;;;;9.07;2.00;;;19.60;99.90;;;;;;5112407;28;20131;-70
2023/09/30 11:38:50;;;;;;;8.27;1.95;;;19.60;99.90;;;;;;5111807;28;20606;-68
2023/09/30 11:41:18;;;;;;;10.43;2.20;;;19.60;99.90;;;;;;5112796;28;20040;-67
2023/09/30 11:44:11;;;;;;;7.78;2.13;;;19.60;99.90;;;;;;5112106;28;20153;-68
2023/09/30 11:46:55;;;;;;;8.50;1.88;;;19.50;99.90;;;;;;5094507;28;20471;-77
2023/09/30 11:49:34;;;;;;;7.97;2.13;;;19.50;99.90;;;;;;5112843;28;20041;-67
2023/09/30 11:52:02;;;;;;;5.30;1.90;;;19.50;99.90;;;;;;5112297;28;20048;-67
2023/09/30 11:54:40;;;;;;;7.03;1.60;;;19.60;99.90;;;;;;5112566;28;20051;-67
2023/09/30 11:57:09;;;;;;;7.93;1.90;;;19.60;99.90;;;;;;5094181;28;20385;-67
2023/09/30 11:59:36;;;;;;;8.32;2.10;;;19.60;99.90;;;;;;5094559;28;20043;-68
2023/09/30 12:02:03;;;;;;;8.15;1.98;;;19.60;99.90;;;;;;5093930;28;20035;-68
2023/09/30 12:04:29;;;;;;;7.95;2.53;;;19.60;99.90;;;;;;5094249;28;20127;-66
2023/09/30 12:06:56;;;;;;;8.98;2.30;;;19.50;99.90;;;;;;5112054;28;20040;-66
2023/09/30 12:09:25;;;;;;;8.25;2.28;;;19.50;99.90;;;;;;5078030;28;20083;-67
2023/09/30 12:11:51;;;;;;;8.13;2.35;;;19.50;99.90;;;;;;5094060;28;20089;-68
2023/09/30 12:14:17;;;;;;;4.82;1.83;;;19.40;99.90;;;;;;5112383;28;20097;-68
2023/09/30 12:16:45;;;;;;;9.02;2.22;;;19.30;99.90;;;;;;5093908;28;20040;-70
2023/09/30 12:19:13;;;;;;;9.98;2.20;;;19.30;99.90;;;;;;5094368;28;20048;-67
2023/09/30 12:21:40;;;;;;;12.13;2.35;;;19.30;99.90;;;;;;5112392;28;20048;-68
2023/09/30 12:24:07;;;;;;;6.80;2.10;;;19.40;99.90;;;;;;5094127;28;20059;-68
2023/09/30 12:26:33;;;;;;;11.10;2.40;;;19.50;99.90;;;;;;5094652;28;20055;-67
2023/09/30 12:28:59;;;;;;;7.32;2.10;;;19.60;99.90;;;;;;5115678;28;20059;-68
2023/09/30 12:31:25;;;;;;;9.50;2.40;;;19.70;99.90;;;;;;5116208;28;20061;-67
2023/09/30 12:33:51;;;;;;;7.95;2.13;;;19.70;99.90;;;;;;5115630;28;20055;-68
2023/09/30 12:36:18;;;;;;;5.45;2.47;;;19.80;99.90;;;;;;5115935;28;20048;-68
2023/09/30 12:38:44;;;;;;;5.43;1.63;;;19.90;99.90;;;;;;5115996;28;20047;-76
2023/09/30 12:41:10;;;;;;;6.65;2.10;;;19.90;99.90;;;;;;5115742;28;20047;-68
2023/09/30 12:43:36;;;;;;;13.25;2.30;;;19.90;99.90;;;;;;5115999;28;20481;-68